Time;durP1;ratioP1;P1;durP2;ratioP2;P2;SDS_P1;SDS_P2;PMS_P1;PMS_P2;Temp;Humidity;BMP_temperature;BMP_pressure;BME280_temperature;BME280_humidity;BME280_pressure;Samples;Min_cycle;Max_cycle;Signal;HPM_P1;HPM_P2
2022/10/25 00:02:05;;;;;;;;;;;13.90;99.90;;;;;;5057762;28;19962;-69
2022/10/25 00:04:30;;;;;;;;;;;13.90;99.90;;;;;;5052957;28;19925;-71
2022/10/25 00:06:56;;;;;;;;;;;14.00;99.90;;;;;;5056948;28;20345;-69
2022/10/25 00:09:21;;;;;;;;;;;13.90;99.90;;;;;;5055769;28;19916;-69
2022/10/25 00:11:47;;;;;;;;;;;14.00;99.90;;;;;;5056209;28;20038;-71
2022/10/25 00:14:17;;;;;;;;;;;13.90;99.90;;;;;;5056130;28;20387;-70
2022/10/25 00:16:42;;;;;;;;;;;13.90;99.90;;;;;;5055184;28;19917;-70
2022/10/25 00:19:10;;;;;;;;;;;13.90;99.90;;;;;;5058223;28;20398;-71
2022/10/25 00:21:36;;;;;;;;;;;13.90;99.90;;;;;;5058764;28;19923;-70
2022/10/25 00:24:01;;;;;;;;;;;13.90;99.90;;;;;;5053497;28;19921;-70
2022/10/25 00:26:27;;;;;;;;;;;13.90;99.90;;;;;;5056668;28;20300;-72
2022/10/25 00:28:54;;;;;;;;;;;13.90;99.90;;;;;;5056022;28;19912;-70
2022/10/25 00:31:21;;;;;;;;;;;13.90;99.90;;;;;;5057147;28;20047;-69
2022/10/25 00:33:46;;;;;;;;;;;13.90;99.90;;;;;;5053879;28;19942;-69
2022/10/25 00:36:13;;;;;;;;;;;14.00;99.90;;;;;;5054747;28;19912;-68
2022/10/25 00:38:39;;;;;;;;;;;14.00;99.90;;;;;;5055478;28;19916;-69
2022/10/25 00:41:05;;;;;;;;;;;14.00;99.90;;;;;;5054983;28;19913;-70
2022/10/25 00:43:31;;;;;;;;;;;14.00;99.90;;;;;;5057114;28;20665;-69
2022/10/25 00:45:57;;;;;;;;;;;14.00;99.90;;;;;;5054866;28;19923;-70
2022/10/25 00:48:23;;;;;;;;;;;14.00;99.90;;;;;;5057737;28;20300;-70
2022/10/25 00:50:49;;;;;;;;;;;14.00;99.90;;;;;;5055020;28;19928;-69
2022/10/25 00:53:20;;;;;;;;;;;14.10;99.90;;;;;;5056283;28;19913;-69
2022/10/25 00:55:50;;;;;;;;;;;14.10;99.90;;;;;;5053648;28;20340;-70
2022/10/25 00:58:18;;;;;;;;;;;14.10;99.90;;;;;;5056407;28;20388;-70
2022/10/25 01:00:47;;;;;;;;;;;14.10;99.90;;;;;;5055399;28;19916;-70
2022/10/25 01:03:13;;;;;;;;;;;14.10;99.90;;;;;;5054263;28;19916;-70
2022/10/25 01:05:39;;;;;;;;;;;14.10;99.90;;;;;;5055258;28;20373;-70
2022/10/25 01:08:05;;;;;;;;;;;14.10;99.90;;;;;;5055487;28;19959;-70
2022/10/25 01:10:30;;;;;;;;;;;14.00;99.90;;;;;;5056940;28;20673;-71
2022/10/25 01:12:56;;;;;;;;;;;14.00;99.90;;;;;;5052640;28;19924;-69
2022/10/25 01:15:24;;;;;;;;;;;14.10;99.90;;;;;;5061717;28;20020;-71
2022/10/25 01:17:52;;;;;;;;;;;14.00;99.90;;;;;;5055300;28;19948;-69
2022/10/25 01:20:41;;;;;;;;;;;14.00;99.90;;;;;;5054687;28;19920;-70
2022/10/25 01:23:06;;;;;;;;;;;14.00;99.90;;;;;;5065178;28;19919;-70
2022/10/25 01:25:35;;;;;;;;;;;13.90;99.90;;;;;;5056493;28;19916;-71
2022/10/25 01:28:06;;;;;;;;;;;13.90;99.90;;;;;;5057335;28;19980;-70
2022/10/25 01:30:31;;;;;;;;;;;13.90;99.90;;;;;;5055726;28;19970;-70
2022/10/25 01:33:04;;;;;;;;;;;13.90;99.90;;;;;;5051932;28;19920;-70
2022/10/25 01:35:48;;;;;;;;;;;13.90;99.90;;;;;;5051711;28;19940;-71
2022/10/25 01:38:20;;;;;;;;;;;13.90;99.90;;;;;;5054529;28;20001;-69
2022/10/25 01:40:53;;;;;;;;;;;13.80;99.90;;;;;;5053249;28;19966;-68
2022/10/25 01:43:30;;;;;;;;;;;13.80;99.90;;;;;;5055723;28;19916;-69
2022/10/25 01:46:16;;;;;;;;;;;13.70;99.90;;;;;;5051884;28;20024;-70
2022/10/25 01:48:46;;;;;;;;;;;13.80;99.90;;;;;;5047836;28;19965;-69
2022/10/25 01:51:13;;;;;;;;;;;13.70;99.90;;;;;;5054278;28;20058;-70
2022/10/25 01:53:43;;;;;;;;;;;13.70;99.90;;;;;;5051844;28;19917;-71
2022/10/25 01:56:10;;;;;;;;;;;13.60;99.90;;;;;;5055948;28;19916;-69
2022/10/25 01:58:39;;;;;;;;;;;13.60;99.90;;;;;;5052354;28;19913;-69
2022/10/25 02:01:24;;;;;;;;;;;13.70;99.90;;;;;;5056857;28;19971;-70
2022/10/25 02:03:50;;;;;;;;;;;13.60;99.90;;;;;;5053391;28;19963;-70
2022/10/25 02:06:18;;;;;;;;;;;13.60;99.90;;;;;;5054864;28;19948;-69
2022/10/25 02:08:55;;;;;;;;;;;13.60;99.90;;;;;;5054276;28;19974;-71
2022/10/25 02:11:22;;;;;;;;;;;13.60;99.90;;;;;;5054105;28;20369;-70
2022/10/25 02:13:47;;;;;;;;;;;13.60;99.90;;;;;;5053067;28;19931;-70
2022/10/25 02:16:19;;;;;;;;;;;13.50;99.90;;;;;;5055383;28;19917;-71
2022/10/25 02:18:47;;;;;;;;;;;13.50;99.90;;;;;;5054568;28;20264;-70
2022/10/25 02:21:14;;;;;;;;;;;13.50;99.90;;;;;;5057288;28;19963;-71
2022/10/25 02:23:40;;;;;;;;;;;13.50;99.90;;;;;;5053486;28;20375;-69
2022/10/25 02:26:07;;;;;;;;;;;13.50;99.90;;;;;;5056688;28;19920;-70
2022/10/25 02:28:35;;;;;;;;;;;13.40;99.90;;;;;;5053524;28;20261;-70
2022/10/25 02:31:00;;;;;;;;;;;13.40;99.90;;;;;;5055150;28;20078;-69
2022/10/25 02:33:26;;;;;;;;;;;13.50;99.90;;;;;;5052809;28;20048;-71
2022/10/25 02:36:26;;;;;;;;;;;13.40;99.90;;;;;;5056465;28;20003;-69
2022/10/25 02:38:53;;;;;;;;;;;13.50;99.90;;;;;;5013455;28;20016;-69
2022/10/25 02:41:19;;;;;;;;;;;13.50;99.90;;;;;;5050135;28;19951;-69
2022/10/25 02:43:45;;;;;;;;;;;13.60;99.90;;;;;;5056097;28;20383;-69
2022/10/25 02:46:12;;;;;;;;;;;13.60;99.90;;;;;;5059083;28;19917;-69
2022/10/25 02:48:37;;;;;;;;;;;13.60;99.90;;;;;;5056956;28;19967;-70
2022/10/25 02:51:04;;;;;;;;;;;13.60;99.90;;;;;;5056803;28;19948;-70
2022/10/25 02:53:30;;;;;;;;;;;13.60;99.90;;;;;;5058807;28;19962;-70
2022/10/25 02:56:03;;;;;;;;;;;13.50;99.90;;;;;;5060055;28;19978;-70
2022/10/25 02:58:30;;;;;;;;;;;13.50;99.90;;;;;;5056534;28;20353;-71
2022/10/25 03:00:55;;;;;;;;;;;13.50;99.90;;;;;;5058937;28;19931;-70
2022/10/25 03:03:21;;;;;;;;;;;13.50;99.90;;;;;;5056528;28;19920;-70
2022/10/25 03:05:46;;;;;;;;;;;13.50;99.90;;;;;;5058163;28;19924;-70
2022/10/25 03:08:12;;;;;;;;;;;13.50;99.90;;;;;;5056636;28;20794;-70
2022/10/25 03:10:37;;;;;;;;;;;13.50;99.90;;;;;;5057150;28;19923;-70
2022/10/25 03:13:03;;;;;;;;;;;13.50;99.90;;;;;;5058926;28;19966;-70
2022/10/25 03:15:28;;;;;;;;;;;13.50;99.90;;;;;;5056324;28;19917;-70
2022/10/25 03:17:53;;;;;;;;;;;13.50;99.90;;;;;;5059834;28;20585;-70
2022/10/25 03:20:19;;;;;;;;;;;13.50;99.90;;;;;;5056558;28;19923;-70
2022/10/25 03:22:44;;;;;;;;;;;13.50;99.90;;;;;;5061986;28;20301;-70
2022/10/25 03:25:10;;;;;;;;;;;13.60;99.90;;;;;;5056955;28;20011;-71
2022/10/25 03:27:35;;;;;;;;;;;13.60;99.90;;;;;;5058819;28;20039;-71
2022/10/25 03:30:01;;;;;;;;;;;13.60;99.90;;;;;;5059042;28;20552;-70
2022/10/25 03:32:26;;;;;;;;;;;13.50;99.90;;;;;;5054441;28;19913;-69
2022/10/25 03:34:52;;;;;;;;;;;13.50;99.90;;;;;;5057259;28;19924;-70
2022/10/25 03:37:17;;;;;;;;;;;13.40;99.90;;;;;;5056617;28;19924;-69
2022/10/25 03:39:43;;;;;;;;;;;13.40;99.90;;;;;;5057435;28;20308;-69
2022/10/25 03:42:08;;;;;;;;;;;13.40;99.90;;;;;;5056141;28;19916;-69
2022/10/25 03:44:34;;;;;;;;;;;13.30;99.90;;;;;;5055874;28;19921;-69
2022/10/25 03:47:00;;;;;;;;;;;13.30;99.90;;;;;;5057257;28;19916;-69
2022/10/25 03:49:25;;;;;;;;;;;13.20;99.90;;;;;;5055920;28;20461;-72
2022/10/25 03:51:51;;;;;;;;;;;13.20;99.90;;;;;;5057663;28;19923;-70
2022/10/25 03:54:16;;;;;;;;;;;13.10;99.90;;;;;;5055372;28;20303;-69
2022/10/25 03:56:42;;;;;;;;;;;13.10;99.90;;;;;;5057986;28;19990;-70
2022/10/25 03:59:07;;;;;;;;;;;13.00;99.90;;;;;;5056011;28;19924;-70
2022/10/25 04:01:33;;;;;;;;;;;13.00;99.90;;;;;;5058091;28;20034;-71
2022/10/25 04:03:58;;;;;;;;;;;13.00;99.90;;;;;;5057914;28;19916;-69
2022/10/25 04:06:24;;;;;;;;;;;13.00;99.90;;;;;;5056473;28;19920;-70
2022/10/25 04:08:49;;;;;;;;;;;13.00;99.90;;;;;;5058125;28;20288;-69
2022/10/25 04:11:16;;;;;;;;;;;13.00;99.90;;;;;;5056322;28;19917;-70
2022/10/25 04:13:41;;;;;;;;;;;13.00;99.90;;;;;;5055467;28;19921;-70
2022/10/25 04:16:07;;;;;;;;;;;13.10;99.90;;;;;;5056898;28;19916;-70
2022/10/25 04:18:33;;;;;;;;;;;13.10;99.90;;;;;;5056067;28;19921;-70
2022/10/25 04:20:58;;;;;;;;;;;13.10;99.90;;;;;;5058486;28;19969;-69
2022/10/25 04:23:24;;;;;;;;;;;13.10;99.90;;;;;;5058649;28;19920;-70
2022/10/25 04:25:49;;;;;;;;;;;13.10;99.90;;;;;;5060168;28;19920;-70
2022/10/25 04:28:15;;;;;;;;;;;13.00;99.90;;;;;;5055956;28;20413;-70
2022/10/25 04:30:40;;;;;;;;;;;13.00;99.90;;;;;;5057193;28;19955;-71
2022/10/25 04:33:06;;;;;;;;;;;12.90;99.90;;;;;;5055212;28;20011;-70
2022/10/25 04:35:31;;;;;;;;;;;12.90;99.90;;;;;;5055993;28;19924;-71
2022/10/25 04:37:57;;;;;;;;;;;12.90;99.90;;;;;;5058081;28;19965;-71
2022/10/25 04:40:23;;;;;;;;;;;12.80;99.90;;;;;;5055943;28;19917;-70
2022/10/25 04:42:48;;;;;;;;;;;12.80;99.90;;;;;;5057596;28;19920;-70
2022/10/25 04:45:13;;;;;;;;;;;12.80;99.90;;;;;;5054002;28;19916;-70
2022/10/25 04:47:39;;;;;;;;;;;12.80;99.90;;;;;;5057208;28;19924;-70
2022/10/25 04:50:05;;;;;;;;;;;12.80;99.90;;;;;;5056843;28;20196;-70
2022/10/25 04:52:30;;;;;;;;;;;12.80;99.90;;;;;;5055548;28;19917;-71
2022/10/25 04:54:56;;;;;;;;;;;12.80;99.90;;;;;;5055404;28;19916;-71
2022/10/25 04:57:22;;;;;;;;;;;12.80;99.90;;;;;;5054316;28;19923;-70
2022/10/25 04:59:47;;;;;;;;;;;12.80;99.90;;;;;;5055828;28;19920;-70
2022/10/25 05:02:13;;;;;;;;;;;12.90;99.90;;;;;;5055671;28;19916;-70
2022/10/25 05:04:39;;;;;;;;;;;12.90;99.90;;;;;;5052882;28;19928;-69
2022/10/25 05:07:04;;;;;;;;;;;13.00;99.90;;;;;;5056073;28;19927;-70
2022/10/25 05:09:29;;;;;;;;;;;13.00;99.90;;;;;;5053190;28;19916;-70
2022/10/25 05:11:55;;;;;;;;;;;13.10;99.90;;;;;;5054407;28;19912;-71
2022/10/25 05:14:20;;;;;;;;;;;13.10;99.90;;;;;;5052133;28;19922;-70
2022/10/25 05:16:46;;;;;;;;;;;13.10;99.90;;;;;;5052129;28;20277;-70
2022/10/25 05:19:11;;;;;;;;;;;13.10;99.90;;;;;;5055994;28;19949;-70
2022/10/25 05:21:37;;;;;;;;;;;13.10;99.90;;;;;;5055825;28;19920;-71
2022/10/25 05:24:02;;;;;;;;;;;13.10;99.90;;;;;;5053151;28;19913;-70
2022/10/25 05:26:29;;;;;;;;;;;13.10;99.90;;;;;;5056351;28;19917;-71
2022/10/25 05:28:55;;;;;;;;;;;13.20;99.90;;;;;;5052649;28;20384;-70
2022/10/25 05:31:22;;;;;;;;;;;13.20;99.90;;;;;;5060121;28;19921;-70
2022/10/25 05:33:48;;;;;;;;;;;13.30;99.90;;;;;;5054077;28;19917;-70
2022/10/25 05:36:14;;;;;;;;;;;13.30;99.90;;;;;;5057247;28;19925;-70
2022/10/25 05:38:40;;;;;;;;;;;13.30;99.90;;;;;;5056718;28;19977;-70
2022/10/25 05:41:06;;;;;;;;;;;13.40;99.90;;;;;;5058452;28;19929;-70
2022/10/25 05:43:31;;;;;;;;;;;13.40;99.90;;;;;;5053841;28;20334;-70
2022/10/25 05:46:07;;;;;;;;;;;13.40;99.90;;;;;;5060616;28;19927;-70
2022/10/25 05:48:33;;;;;;;;;;;13.50;99.90;;;;;;5057847;28;19927;-70
2022/10/25 05:51:09;;;;;;;;;;;13.50;99.90;;;;;;5055015;28;19920;-70
2022/10/25 05:53:34;;;;;;;;;;;13.60;99.90;;;;;;5055651;28;19917;-72
2022/10/25 05:56:00;;;;;;;;;;;13.60;99.90;;;;;;5058744;28;20391;-70
2022/10/25 05:58:25;;;;;;;;;;;13.50;99.90;;;;;;5056005;28;19961;-75
2022/10/25 06:00:51;;;;;;;;;;;13.50;99.90;;;;;;5055477;28;19921;-70
2022/10/25 06:03:16;;;;;;;;;;;13.50;99.90;;;;;;5057584;28;20432;-70
2022/10/25 06:05:42;;;;;;;;;;;13.60;99.90;;;;;;5057222;28;20028;-71
2022/10/25 06:08:07;;;;;;;;;;;13.50;99.90;;;;;;5058039;28;19923;-70
2022/10/25 06:10:32;;;;;;;;;;;13.60;99.90;;;;;;5056600;28;20364;-70
2022/10/25 06:12:58;;;;;;;;;;;13.60;99.90;;;;;;5057400;28;19944;-70
2022/10/25 06:15:24;;;;;;;;;;;13.50;99.90;;;;;;5054168;28;19923;-70
2022/10/25 06:17:49;;;;;;;;;;;13.50;99.90;;;;;;5062068;28;19920;-70
2022/10/25 06:20:15;;;;;;;;;;;13.40;99.90;;;;;;5060450;28;19920;-70
2022/10/25 06:22:40;;;;;;;;;;;13.40;99.90;;;;;;5061981;28;20666;-69
2022/10/25 06:25:06;;;;;;;;;;;13.40;99.90;;;;;;5060548;28;19921;-70
2022/10/25 06:27:31;;;;;;;;;;;13.30;99.90;;;;;;5059654;28;19921;-69
2022/10/25 06:29:57;;;;;;;;;;;13.40;99.90;;;;;;5057778;28;19939;-70
2022/10/25 06:32:22;;;;;;;;;;;13.30;99.90;;;;;;5058190;28;19920;-70
2022/10/25 06:34:48;;;;;;;;;;;13.30;99.90;;;;;;5057359;28;19969;-71
2022/10/25 06:37:14;;;;;;;;;;;13.30;99.90;;;;;;5057547;28;19920;-68
2022/10/25 06:39:39;;;;;;;;;;;13.40;99.90;;;;;;5059825;28;19927;-70
2022/10/25 06:42:05;;;;;;;;;;;13.30;99.90;;;;;;5056126;28;20357;-69
2022/10/25 06:44:30;;;;;;;;;;;13.30;99.90;;;;;;5057803;28;19916;-70
2022/10/25 06:46:56;;;;;;;;;;;13.30;99.90;;;;;;5057362;28;19916;-71
2022/10/25 06:49:21;;;;;;;;;;;13.30;99.90;;;;;;5056520;28;20475;-69
2022/10/25 06:51:47;;;;;;;;;;;13.30;99.90;;;;;;5058932;28;20362;-70
2022/10/25 06:54:12;;;;;;;;;;;13.20;99.90;;;;;;5056444;28;19959;-70
2022/10/25 06:56:37;;;;;;;;;;;13.20;99.90;;;;;;5059041;28;19916;-70
2022/10/25 06:59:05;;;;;;;;;;;13.20;99.90;;;;;;5057252;28;19916;-69
2022/10/25 07:01:30;;;;;;;;;;;13.20;99.90;;;;;;5056947;28;19995;-70
2022/10/25 07:03:56;;;;;;;;;;;13.20;99.90;;;;;;5057025;28;20003;-70
2022/10/25 07:06:26;;;;;;;;;;;13.20;99.90;;;;;;5056550;28;20637;-68
2022/10/25 07:08:53;;;;;;;;;;;13.20;99.90;;;;;;5057454;28;20428;-69
2022/10/25 07:11:19;;;;;;;;;;;13.20;99.90;;;;;;5056252;28;19995;-69
2022/10/25 07:13:45;;;;;;;;;;;13.30;99.90;;;;;;5058770;28;20412;-70
2022/10/25 07:16:12;;;;;;;;;;;13.30;99.90;;;;;;5063378;28;19918;-69
2022/10/25 07:18:37;;;;;;;;;;;13.40;99.90;;;;;;5061564;28;19951;-70
2022/10/25 07:21:05;;;;;;;;;;;13.40;99.90;;;;;;5055626;28;19964;-71
2022/10/25 07:23:31;;;;;;;;;;;13.40;99.90;;;;;;5057753;28;19916;-71
2022/10/25 07:25:56;;;;;;;;;;;13.50;99.90;;;;;;5059121;28;19920;-70
2022/10/25 07:28:22;;;;;;;;;;;13.50;99.90;;;;;;5056411;28;19912;-69
2022/10/25 07:30:47;;;;;;;;;;;13.60;99.90;;;;;;5058061;28;20257;-70
2022/10/25 07:33:14;;;;;;;;;;;13.60;99.90;;;;;;5059234;28;20417;-69
2022/10/25 07:35:39;;;;;;;;;;;13.70;99.90;;;;;;5053609;28;19920;-70
2022/10/25 07:38:05;;;;;;;;;;;13.80;99.90;;;;;;5060149;28;19923;-70
2022/10/25 07:40:30;;;;;;;;;;;13.80;99.90;;;;;;5055923;28;19982;-70
2022/10/25 07:42:55;;;;;;;;;;;13.80;99.90;;;;;;5058560;28;19912;-70
2022/10/25 07:45:21;;;;;;;;;;;13.80;99.90;;;;;;5057515;28;19920;-70
2022/10/25 07:47:49;;;;;;;;;;;13.80;99.90;;;;;;5056251;28;19962;-70
2022/10/25 07:50:14;;;;;;;;;;;13.80;99.90;;;;;;5058938;28;19916;-70
2022/10/25 07:52:40;;;;;;;;;;;13.90;99.90;;;;;;5054730;28;19923;-70
2022/10/25 07:55:05;;;;;;;;;;;14.00;99.90;;;;;;5059176;28;20364;-70
2022/10/25 07:57:31;;;;;;;;;;;14.00;99.90;;;;;;5054970;28;19920;-68
2022/10/25 07:59:57;;;;;;;;;;;13.90;99.90;;;;;;5058290;28;19913;-69
2022/10/25 08:02:22;;;;;;;;;;;14.00;99.90;;;;;;5057013;28;19912;-70
2022/10/25 08:04:47;;;;;;;;;;;14.00;99.90;;;;;;5055600;28;19917;-69
2022/10/25 08:07:13;;;;;;;;;;;14.10;99.90;;;;;;5058692;28;20286;-69
2022/10/25 08:09:38;;;;;;;;;;;14.10;99.90;;;;;;5055063;28;19925;-69
2022/10/25 08:12:04;;;;;;;;;;;14.10;99.90;;;;;;5059379;28;20299;-69
2022/10/25 08:14:29;;;;;;;;;;;14.10;99.90;;;;;;5055315;28;19966;-69
2022/10/25 08:16:55;;;;;;;;;;;14.20;99.90;;;;;;5057433;28;19923;-71
2022/10/25 08:19:20;;;;;;;;;;;14.30;99.90;;;;;;5057032;28;19923;-69
2022/10/25 08:21:46;;;;;;;;;;;14.30;99.90;;;;;;5055607;28;20432;-69
2022/10/25 08:24:11;;;;;;;;;;;14.40;99.90;;;;;;5058119;28;19927;-69
2022/10/25 08:26:37;;;;;;;;;;;14.40;99.90;;;;;;5057032;28;19945;-70
2022/10/25 08:29:02;;;;;;;;;;;14.40;99.90;;;;;;5054261;28;19920;-69
2022/10/25 08:31:27;;;;;;;;;;;14.40;99.90;;;;;;5057561;28;19916;-70
2022/10/25 08:33:53;;;;;;;;;;;14.50;99.90;;;;;;5055448;28;19974;-70
2022/10/25 08:36:19;;;;;;;;;;;14.60;99.90;;;;;;5055501;28;19920;-69
2022/10/25 08:38:45;;;;;;;;;;;14.60;99.90;;;;;;5054759;28;19928;-70
2022/10/25 08:41:15;;;;;;;;;;;14.60;99.90;;;;;;5055706;28;19978;-70
2022/10/25 08:43:59;;;;;;;;;;;14.70;99.90;;;;;;5056029;28;19916;-70
2022/10/25 08:46:26;;;;;;;;;;;14.60;99.90;;;;;;5055942;28;20678;-70
2022/10/25 08:48:56;;;;;;;;;;;14.60;99.90;;;;;;5054166;28;20277;-70
2022/10/25 08:51:29;;;;;;;;;;;14.60;99.90;;;;;;5056440;28;19970;-70
2022/10/25 08:53:57;;;;;;;;;;;14.60;99.90;;;;;;5052981;28;19959;-69
2022/10/25 08:56:23;;;;;;;;;;;14.70;99.90;;;;;;5055798;28;19920;-69
2022/10/25 08:58:52;;;;;;;;;;;14.70;99.90;;;;;;5053862;28;20339;-70
2022/10/25 09:01:21;;;;;;;;;;;14.80;99.90;;;;;;5054766;28;19917;-71
2022/10/25 09:03:46;;;;;;;;;;;14.80;99.90;;;;;;5055249;28;19926;-69
2022/10/25 09:06:21;;;;;;;;;;;14.90;99.90;;;;;;5055634;28;19924;-68
2022/10/25 09:08:46;;;;;;;;;;;15.10;99.90;;;;;;5054299;28;19986;-70
2022/10/25 09:11:30;;;;;;;;;;;15.10;99.90;;;;;;5055110;28;20305;-69
2022/10/25 09:13:59;;;;;;;;;;;15.10;99.90;;;;;;5052410;28;20020;-69
2022/10/25 09:16:31;;;;;;;;;;;15.20;99.90;;;;;;5056998;28;19946;-69
2022/10/25 09:18:57;;;;;;;;;;;15.20;99.90;;;;;;5054379;28;19920;-70
2022/10/25 09:21:41;;;;;;;;;;;15.20;99.90;;;;;;5056423;28;19921;-69
2022/10/25 09:24:19;;;;;;;;;;;15.30;99.90;;;;;;5054813;28;20024;-69
2022/10/25 09:26:52;;;;;;;;;;;15.20;99.90;;;;;;5059511;28;20007;-69
2022/10/25 09:29:23;;;;;;;;;;;15.20;99.90;;;;;;5054678;28;20278;-70
2022/10/25 09:31:50;;;;;;;;;;;15.10;99.90;;;;;;5054990;28;20277;-70
2022/10/25 09:34:17;;;;;;;;;;;15.10;99.90;;;;;;5053664;28;19916;-70
2022/10/25 09:36:45;;;;;;;;;;;15.10;99.90;;;;;;5055806;28;19999;-70
2022/10/25 09:39:15;;;;;;;;;;;15.10;99.90;;;;;;5054863;28;19917;-70
2022/10/25 09:41:43;;;;;;;;;;;15.10;99.90;;;;;;5055407;28;20280;-70
2022/10/25 09:44:11;;;;;;;;;;;15.10;99.90;;;;;;5054353;28;19919;-70
2022/10/25 09:46:57;;;;;;;;;;;15.20;99.90;;;;;;5055618;28;19912;-70
2022/10/25 09:49:29;;;;;;;;;;;15.20;99.90;;;;;;5054573;28;19966;-70
2022/10/25 09:52:03;;;;;;;;;;;15.30;99.90;;;;;;5052384;28;19925;-70
2022/10/25 09:54:37;;;;;;;;;;;15.40;99.90;;;;;;5053082;28;19923;-70
2022/10/25 09:57:02;;;;;;;;;;;15.30;99.90;;;;;;5053837;28;19952;-70
2022/10/25 09:59:28;;;;;;;;;;;15.40;99.90;;;;;;5055354;28;20027;-70
2022/10/25 10:01:54;;;;;;;;;;;15.30;99.90;;;;;;5053775;28;20065;-70
2022/10/25 10:04:28;;;;;;;;;;;15.30;99.90;;;;;;5054147;28;20030;-70
2022/10/25 10:07:00;;;;;;;;;;;15.30;99.90;;;;;;5053132;28;19916;-70
2022/10/25 10:09:28;;;;;;;;;;;15.40;99.90;;;;;;5056796;28;19951;-70
2022/10/25 10:11:54;;;;;;;;;;;15.40;99.90;;;;;;5053426;28;19913;-70
2022/10/25 10:14:40;;;;;;;;;;;15.40;99.90;;;;;;5054422;28;19923;-69
2022/10/25 10:17:10;;;;;;;;;;;15.50;99.90;;;;;;5053600;28;20019;-70
2022/10/25 10:19:35;;;;;;;;;;;15.50;99.90;;;;;;5054270;28;19998;-71
2022/10/25 10:22:05;;;;;;;;;;;15.60;99.90;;;;;;5055710;28;20034;-70
2022/10/25 10:24:33;;;;;;;;;;;15.60;99.90;;;;;;5053736;28;19916;-71
2022/10/25 10:27:00;;;;;;;;;;;15.50;99.90;;;;;;5056297;28;20420;-70
2022/10/25 10:29:27;;;;;;;;;;;15.50;99.90;;;;;;5053797;28;19916;-70
2022/10/25 10:31:54;;;;;;;;;;;15.50;99.90;;;;;;5056364;28;20010;-70
2022/10/25 10:34:30;;;;;;;;;;;15.50;99.90;;;;;;5053452;28;19920;-70
2022/10/25 10:37:01;;;;;;;;;;;15.60;99.90;;;;;;5053429;28;20460;-70
2022/10/25 10:39:27;;;;;;;;;;;15.60;99.90;;;;;;5052070;28;19925;-70
2022/10/25 10:41:59;;;;;;;;;;;15.60;99.90;;;;;;5056958;28;19916;-69
2022/10/25 10:44:25;;;;;;;;;;;15.70;99.90;;;;;;5054913;28;19916;-70
2022/10/25 10:46:53;;;;;;;;;;;15.70;99.90;;;;;;5056192;28;19927;-69
2022/10/25 10:49:19;;;;;;;;;;;15.80;99.90;;;;;;5054483;28;19917;-69
2022/10/25 10:51:45;;;;;;;;;;;15.90;99.90;;;;;;5055297;28;19920;-69
2022/10/25 10:54:13;;;;;;;;;;;16.10;99.90;;;;;;5054397;28;19920;-69
2022/10/25 10:56:39;;;;;;;;;;;16.10;99.90;;;;;;5052952;28;19959;-69
2022/10/25 10:59:04;;;;;;;;;;;16.10;99.90;;;;;;5055883;28;19952;-69
2022/10/25 11:01:32;;;;;;;;;;;16.10;99.90;;;;;;5053545;28;19924;-70
2022/10/25 11:03:58;;;;;;;;;;;16.10;99.90;;;;;;5058392;28;20304;-71
2022/10/25 11:06:28;;;;;;;;;;;16.20;99.90;;;;;;5057187;28;19952;-70
2022/10/25 11:09:11;;;;;;;;;;;16.10;99.90;;;;;;5056268;28;19917;-69
2022/10/25 11:11:37;;;;;;;;;;;16.20;99.90;;;;;;5055859;28;19916;-70
2022/10/25 11:14:07;;;;;;;;;;;16.20;99.90;;;;;;5058768;28;19912;-70
2022/10/25 11:16:48;;;;;;;;;;;16.20;99.90;;;;;;5057047;28;20490;-69
2022/10/25 11:19:14;;;;;;;;;;;16.20;99.90;;;;;;5056241;28;19919;-70
2022/10/25 11:21:42;;;;;;;;;;;16.10;99.90;;;;;;5056306;28;19921;-70
2022/10/25 11:24:16;;;;;;;;;;;16.00;99.90;;;;;;5059219;28;19977;-69
2022/10/25 11:26:45;;;;;;;;;;;16.00;99.90;;;;;;5059017;28;19925;-69
2022/10/25 11:29:14;;;;;;;;;;;16.00;99.90;;;;;;5058122;28;19935;-71
2022/10/25 11:31:45;;;;;;;;;;;16.10;99.90;;;;;;5055810;28;19966;-70
2022/10/25 11:34:29;;;;;;;;;;;16.20;99.90;;;;;;5059916;28;19927;-69
2022/10/25 11:37:14;;;;;;;;;;;16.30;99.90;;;;;;5054782;28;19919;-69
2022/10/25 11:39:52;;;;;;;;;;;16.40;99.90;;;;;;5054943;28;19913;-71
2022/10/25 11:42:27;;;;;;;;;;;16.60;99.90;;;;;;5053891;28;19966;-70
2022/10/25 11:45:02;;;;;;;;;;;16.60;99.90;;;;;;5050521;28;19969;-70
2022/10/25 11:47:39;;;;;;;;;;;16.70;99.90;;;;;;5053272;28;20042;-71
2022/10/25 11:50:27;;;;;;;;;;;16.70;99.90;;;;;;5055279;28;19970;-70
2022/10/25 11:53:11;;;;;;;;;;;16.80;99.90;;;;;;5057317;28;19912;-71
2022/10/25 11:55:39;;;;;;;;;;;16.80;99.90;;;;;;5058045;28;20408;-71
2022/10/25 11:58:04;;;;;;;;;;;16.70;99.90;;;;;;5055923;28;19923;-69
2022/10/25 12:00:36;;;;;;;;;;;16.60;99.90;;;;;;5055090;28;19913;-69
2022/10/25 12:03:11;;;;;;;;;;;16.70;99.90;;;;;;5057932;28;20373;-71
2022/10/25 12:05:45;;;;;;;;;;;16.70;99.90;;;;;;5057449;28;19920;-71
2022/10/25 12:08:24;;;;;;;;;;;16.70;99.90;;;;;;5055533;28;19952;-70
2022/10/25 12:10:53;;;;;;;;;;;16.80;99.90;;;;;;5052507;28;19967;-70
2022/10/25 12:13:27;;;;;;;;;;;16.80;99.90;;;;;;5056626;28;19931;-70
2022/10/25 12:15:54;;;;;;;;;;;16.80;99.90;;;;;;5052638;28;20007;-70
2022/10/25 12:18:32;;;;;;;;;;;16.80;99.90;;;;;;5054801;28;19967;-70
2022/10/25 12:20:58;;;;;;;;;;;16.80;99.90;;;;;;5052242;28;20439;-68
2022/10/25 12:23:24;;;;;;;;;;;16.80;99.90;;;;;;5057978;28;19943;-70
2022/10/25 12:25:51;;;;;;;;;;;16.90;99.90;;;;;;5057003;28;19923;-71
2022/10/25 12:28:36;;;;;;;;;;;16.80;99.90;;;;;;5053712;28;19917;-70
2022/10/25 12:31:15;;;;;;;;;;;16.80;99.90;;;;;;5058184;28;19916;-71
2022/10/25 12:33:45;;;;;;;;;;;16.80;99.90;;;;;;5048121;28;19956;-70
2022/10/25 12:36:19;;;;;;;;;;;16.80;99.90;;;;;;5057747;28;19927;-71
2022/10/25 12:38:44;;;;;;;;;;;16.80;99.90;;;;;;5054962;28;20536;-70
2022/10/25 12:41:16;;;;;;;;;;;16.70;99.90;;;;;;5057973;28;19924;-70
2022/10/25 12:44:01;;;;;;;;;;;16.70;99.90;;;;;;5060153;28;19953;-70
2022/10/25 12:46:42;;;;;;;;;;;16.90;99.90;;;;;;5058069;28;19920;-72
2022/10/25 12:49:23;;;;;;;;;;;16.90;99.90;;;;;;5054604;28;19916;-70
2022/10/25 12:51:56;;;;;;;;;;;17.00;99.90;;;;;;5057696;28;19940;-69
2022/10/25 12:54:40;;;;;;;;;;;17.10;99.90;;;;;;5058114;28;20011;-69
2022/10/25 12:57:06;;;;;;;;;;;17.10;99.90;;;;;;5057159;28;20658;-70
2022/10/25 12:59:37;;;;;;;;;;;17.20;99.90;;;;;;5058431;28;19924;-71
2022/10/25 13:02:03;;;;;;;;;;;17.20;99.90;;;;;;5055243;28;19923;-70
2022/10/25 13:04:28;;;;;;;;;;;17.20;99.90;;;;;;5055909;28;20284;-71
2022/10/25 13:06:55;;;;;;;;;;;17.10;99.90;;;;;;5058261;28;19996;-68
2022/10/25 13:09:21;;;;;;;;;;;17.00;99.90;;;;;;5058861;28;20429;-70
2022/10/25 13:11:57;;;;;;;;;;;17.00;99.90;;;;;;5056459;28;20699;-71
2022/10/25 13:14:25;;;;;;;;;;;16.90;99.90;;;;;;5053855;28;19930;-70
2022/10/25 13:16:50;;;;;;;;;;;16.90;99.90;;;;;;5061870;28;19927;-69
2022/10/25 13:19:19;;;;;;;;;;;16.80;99.90;;;;;;5058521;28;19916;-69
2022/10/25 13:21:53;;;;;;;;;;;16.90;99.90;;;;;;5058212;28;20350;-70
2022/10/25 13:24:35;;;;;;;;;;;17.00;99.90;;;;;;5055945;28;20446;-70
2022/10/25 13:27:19;;;;;;;;;;;17.10;99.90;;;;;;5056640;28;20002;-70
2022/10/25 13:29:56;;;;;;;;;;;17.10;99.90;;;;;;5058613;28;19931;-70
2022/10/25 13:32:22;;;;;;;;;;;17.10;99.90;;;;;;5060297;28;19920;-70
2022/10/25 13:34:47;;;;;;;;;;;17.10;99.90;;;;;;5058422;28;19920;-70
2022/10/25 13:37:39;;;;;;;;;;;17.00;99.90;;;;;;5058980;28;20649;-69
2022/10/25 13:40:25;;;;;;;;;;;16.90;99.90;;;;;;5057036;28;20027;-69
2022/10/25 13:43:16;;;;;;;;;;;16.70;99.90;;;;;;5056602;28;19920;-70
2022/10/25 13:45:43;;;;;;;;;;;16.60;99.90;;;;;;5056975;28;20011;-70
2022/10/25 13:48:11;;;;;;;;;;;16.60;99.90;;;;;;5055339;28;20512;-71
2022/10/25 13:51:00;;;;;;;;;;;16.70;99.90;;;;;;5057057;28;19963;-71
2022/10/25 13:53:32;;;;;;;;;;;16.70;99.90;;;;;;5053746;28;19987;-70
2022/10/25 13:55:58;;;;;;;;;;;16.90;99.90;;;;;;5057891;28;19917;-69
2022/10/25 13:58:26;;;;;;;;;;;16.90;99.90;;;;;;5055282;28;19935;-69
2022/10/25 14:00:53;;;;;;;;;;;16.90;99.90;;;;;;5055175;28;19973;-68
2022/10/25 14:03:18;;;;;;;;;;;16.90;99.90;;;;;;5054485;28;20305;-70
2022/10/25 14:05:53;;;;;;;;;;;16.80;99.90;;;;;;5053953;28;19924;-69
2022/10/25 14:08:24;;;;;;;;;;;16.70;99.90;;;;;;5049082;28;19916;-71
2022/10/25 14:10:50;;;;;;;;;;;16.60;99.90;;;;;;5054985;28;19947;-70
2022/10/25 14:13:35;;;;;;;;;;;16.60;99.90;;;;;;5057983;28;19917;-70
2022/10/25 14:16:03;;;;;;;;;;;16.50;99.90;;;;;;5057780;28;19916;-69
2022/10/25 14:18:28;;;;;;;;;;;16.50;99.90;;;;;;5056790;28;20361;-70
2022/10/25 14:20:57;;;;;;;;;;;16.50;99.90;;;;;;5055858;28;19982;-69
2022/10/25 14:23:25;;;;;;;;;;;16.50;99.90;;;;;;5057446;28;19920;-71
2022/10/25 14:25:53;;;;;;;;;;;16.40;99.90;;;;;;5055094;28;19951;-70